sensor_id;sensor_type;location;lat;lon;timestamp;temperature;humidity
15554;DHT22;7878;44.632;10.942;2022-07-29T00:02:26;28.40;74.40
15554;DHT22;7878;44.632;10.942;2022-07-29T00:04:51;28.40;74.40
15554;DHT22;7878;44.632;10.942;2022-07-29T00:07:17;28.40;74.20
15554;DHT22;7878;44.632;10.942;2022-07-29T00:09:43;28.30;74.20
15554;DHT22;7878;44.632;10.942;2022-07-29T00:12:08;28.30;74.40
15554;DHT22;7878;44.632;10.942;2022-07-29T00:14:34;28.30;74.50
15554;DHT22;7878;44.632;10.942;2022-07-29T00:17:00;28.30;74.70
15554;DHT22;7878;44.632;10.942;2022-07-29T00:19:26;28.30;74.90
15554;DHT22;7878;44.632;10.942;2022-07-29T00:21:51;28.30;75.10
15554;DHT22;7878;44.632;10.942;2022-07-29T00:24:17;28.30;75.40
15554;DHT22;7878;44.632;10.942;2022-07-29T00:26:43;28.30;75.80
15554;DHT22;7878;44.632;10.942;2022-07-29T00:29:09;28.20;75.80
15554;DHT22;7878;44.632;10.942;2022-07-29T00:31:34;28.30;76.20
15554;DHT22;7878;44.632;10.942;2022-07-29T00:34:00;28.10;76.70
15554;DHT22;7878;44.632;10.942;2022-07-29T00:36:26;28.10;77.00
15554;DHT22;7878;44.632;10.942;2022-07-29T00:38:51;28.10;77.10
15554;DHT22;7878;44.632;10.942;2022-07-29T00:41:17;28.00;77.20
15554;DHT22;7878;44.632;10.942;2022-07-29T00:43:44;27.90;77.60
15554;DHT22;7878;44.632;10.942;2022-07-29T00:46:10;27.80;78.00
15554;DHT22;7878;44.632;10.942;2022-07-29T00:48:36;27.80;78.20
15554;DHT22;7878;44.632;10.942;2022-07-29T00:51:04;27.80;78.50
15554;DHT22;7878;44.632;10.942;2022-07-29T00:53:30;27.80;78.40
15554;DHT22;7878;44.632;10.942;2022-07-29T00:55:57;27.70;78.50
15554;DHT22;7878;44.632;10.942;2022-07-29T00:58:24;27.60;79.30
15554;DHT22;7878;44.632;10.942;2022-07-29T01:00:50;27.50;79.00
15554;DHT22;7878;44.632;10.942;2022-07-29T01:03:16;27.50;79.40
15554;DHT22;7878;44.632;10.942;2022-07-29T01:05:43;27.40;79.20
15554;DHT22;7878;44.632;10.942;2022-07-29T01:08:11;27.40;79.90
15554;DHT22;7878;44.632;10.942;2022-07-29T01:10:39;27.40;80.10
15554;DHT22;7878;44.632;10.942;2022-07-29T01:13:07;27.40;80.20
15554;DHT22;7878;44.632;10.942;2022-07-29T01:15:39;27.40;80.20
15554;DHT22;7878;44.632;10.942;2022-07-29T01:18:14;27.30;80.60
15554;DHT22;7878;44.632;10.942;2022-07-29T01:31:51;27.40;81.10
15554;DHT22;7878;44.632;10.942;2022-07-29T01:34:27;27.50;81.00
15554;DHT22;7878;44.632;10.942;2022-07-29T01:37:24;27.40;80.70
15554;DHT22;7878;44.632;10.942;2022-07-29T01:39:54;27.40;83.00
15554;DHT22;7878;44.632;10.942;2022-07-29T01:45:26;27.40;80.70
15554;DHT22;7878;44.632;10.942;2022-07-29T01:50:33;27.30;80.50
15554;DHT22;7878;44.632;10.942;2022-07-29T01:53:01;27.30;81.10
15554;DHT22;7878;44.632;10.942;2022-07-29T01:55:39;27.30;80.90
15554;DHT22;7878;44.632;10.942;2022-07-29T01:58:06;27.30;82.90
15554;DHT22;7878;44.632;10.942;2022-07-29T02:00:34;27.30;80.80
15554;DHT22;7878;44.632;10.942;2022-07-29T02:03:05;27.30;81.20
15554;DHT22;7878;44.632;10.942;2022-07-29T02:05:34;27.30;81.40
15554;DHT22;7878;44.632;10.942;2022-07-29T02:08:02;27.30;81.20
15554;DHT22;7878;44.632;10.942;2022-07-29T02:10:34;27.30;80.90
15554;DHT22;7878;44.632;10.942;2022-07-29T02:13:02;27.20;81.10
15554;DHT22;7878;44.632;10.942;2022-07-29T02:15:31;27.20;81.70
15554;DHT22;7878;44.632;10.942;2022-07-29T02:18:11;27.20;82.00
15554;DHT22;7878;44.632;10.942;2022-07-29T02:20:39;27.10;82.90
15554;DHT22;7878;44.632;10.942;2022-07-29T02:23:07;27.00;82.20
15554;DHT22;7878;44.632;10.942;2022-07-29T02:25:35;27.10;81.90
15554;DHT22;7878;44.632;10.942;2022-07-29T02:28:02;27.00;81.80
15554;DHT22;7878;44.632;10.942;2022-07-29T02:30:30;27.10;81.70
15554;DHT22;7878;44.632;10.942;2022-07-29T02:32:57;27.10;81.20
15554;DHT22;7878;44.632;10.942;2022-07-29T02:35:24;27.10;81.20
15554;DHT22;7878;44.632;10.942;2022-07-29T02:37:51;27.10;81.20
15554;DHT22;7878;44.632;10.942;2022-07-29T02:40:38;27.10;81.50
15554;DHT22;7878;44.632;10.942;2022-07-29T02:43:06;27.00;81.50
15554;DHT22;7878;44.632;10.942;2022-07-29T02:45:33;27.00;81.40
15554;DHT22;7878;44.632;10.942;2022-07-29T02:48:00;27.00;81.20
15554;DHT22;7878;44.632;10.942;2022-07-29T02:50:34;27.00;81.50
15554;DHT22;7878;44.632;10.942;2022-07-29T02:53:19;27.00;81.60
15554;DHT22;7878;44.632;10.942;2022-07-29T02:55:54;27.10;83.00
15554;DHT22;7878;44.632;10.942;2022-07-29T02:58:36;27.00;82.20
15554;DHT22;7878;44.632;10.942;2022-07-29T03:01:08;27.00;82.90
15554;DHT22;7878;44.632;10.942;2022-07-29T03:03:37;27.00;81.00
15554;DHT22;7878;44.632;10.942;2022-07-29T03:06:04;27.00;81.00
15554;DHT22;7878;44.632;10.942;2022-07-29T03:08:31;27.00;81.10
15554;DHT22;7878;44.632;10.942;2022-07-29T03:10:58;26.90;81.40
15554;DHT22;7878;44.632;10.942;2022-07-29T03:13:25;26.90;81.50
15554;DHT22;7878;44.632;10.942;2022-07-29T03:15:52;26.90;81.10
15554;DHT22;7878;44.632;10.942;2022-07-29T03:18:19;26.90;81.00
15554;DHT22;7878;44.632;10.942;2022-07-29T03:20:45;26.90;81.00
15554;DHT22;7878;44.632;10.942;2022-07-29T03:23:10;26.90;80.90
15554;DHT22;7878;44.632;10.942;2022-07-29T03:25:36;26.90;81.00
15554;DHT22;7878;44.632;10.942;2022-07-29T03:28:02;27.00;81.00
15554;DHT22;7878;44.632;10.942;2022-07-29T03:30:28;26.90;80.70
15554;DHT22;7878;44.632;10.942;2022-07-29T03:32:56;26.90;80.70
15554;DHT22;7878;44.632;10.942;2022-07-29T03:35:22;26.90;81.00
15554;DHT22;7878;44.632;10.942;2022-07-29T03:37:48;26.80;80.90
15554;DHT22;7878;44.632;10.942;2022-07-29T03:40:21;26.80;81.00
15554;DHT22;7878;44.632;10.942;2022-07-29T03:42:49;26.80;81.30
15554;DHT22;7878;44.632;10.942;2022-07-29T03:45:18;26.80;81.50
15554;DHT22;7878;44.632;10.942;2022-07-29T03:47:54;26.80;81.10
15554;DHT22;7878;44.632;10.942;2022-07-29T03:50:22;26.80;82.00
15554;DHT22;7878;44.632;10.942;2022-07-29T03:52:49;26.80;82.00
15554;DHT22;7878;44.632;10.942;2022-07-29T03:55:15;26.80;81.40
15554;DHT22;7878;44.632;10.942;2022-07-29T03:57:42;26.70;80.90
15554;DHT22;7878;44.632;10.942;2022-07-29T04:00:08;26.70;80.90
15554;DHT22;7878;44.632;10.942;2022-07-29T04:02:35;26.70;80.70
15554;DHT22;7878;44.632;10.942;2022-07-29T04:05:01;26.70;80.60
15554;DHT22;7878;44.632;10.942;2022-07-29T04:07:27;26.80;80.40
15554;DHT22;7878;44.632;10.942;2022-07-29T04:09:53;26.80;80.50
15554;DHT22;7878;44.632;10.942;2022-07-29T04:12:18;26.80;80.50
15554;DHT22;7878;44.632;10.942;2022-07-29T04:14:46;26.80;80.40
15554;DHT22;7878;44.632;10.942;2022-07-29T04:17:12;26.80;80.40
15554;DHT22;7878;44.632;10.942;2022-07-29T04:19:38;26.80;80.40
15554;DHT22;7878;44.632;10.942;2022-07-29T04:22:03;26.80;80.30
15554;DHT22;7878;44.632;10.942;2022-07-29T04:24:29;26.80;80.10
15554;DHT22;7878;44.632;10.942;2022-07-29T04:26:55;26.80;80.20
15554;DHT22;7878;44.632;10.942;2022-07-29T04:29:20;26.80;80.40
15554;DHT22;7878;44.632;10.942;2022-07-29T04:31:46;26.80;80.40
15554;DHT22;7878;44.632;10.942;2022-07-29T04:34:13;26.80;80.10
15554;DHT22;7878;44.632;10.942;2022-07-29T04:36:38;26.80;80.20
15554;DHT22;7878;44.632;10.942;2022-07-29T04:39:04;26.80;80.20
15554;DHT22;7878;44.632;10.942;2022-07-29T04:41:30;26.80;80.40
15554;DHT22;7878;44.632;10.942;2022-07-29T04:43:56;26.80;80.30
15554;DHT22;7878;44.632;10.942;2022-07-29T04:46:22;26.80;80.40
15554;DHT22;7878;44.632;10.942;2022-07-29T04:48:48;26.80;80.50
15554;DHT22;7878;44.632;10.942;2022-07-29T04:51:16;26.80;80.80
15554;DHT22;7878;44.632;10.942;2022-07-29T04:53:42;26.80;81.10
15554;DHT22;7878;44.632;10.942;2022-07-29T04:56:08;26.70;80.90
15554;DHT22;7878;44.632;10.942;2022-07-29T04:58:34;26.70;81.00
15554;DHT22;7878;44.632;10.942;2022-07-29T05:01:00;26.70;81.30
15554;DHT22;7878;44.632;10.942;2022-07-29T05:03:26;26.70;81.60
15554;DHT22;7878;44.632;10.942;2022-07-29T05:05:52;26.80;81.70
15554;DHT22;7878;44.632;10.942;2022-07-29T05:08:17;26.80;81.70
15554;DHT22;7878;44.632;10.942;2022-07-29T05:10:43;26.80;81.70
15554;DHT22;7878;44.632;10.942;2022-07-29T05:13:09;26.80;81.80
15554;DHT22;7878;44.632;10.942;2022-07-29T05:15:35;26.90;81.70
15554;DHT22;7878;44.632;10.942;2022-07-29T05:18:01;26.90;81.90
15554;DHT22;7878;44.632;10.942;2022-07-29T05:20:27;26.90;82.10
15554;DHT22;7878;44.632;10.942;2022-07-29T05:22:55;26.90;82.30
15554;DHT22;7878;44.632;10.942;2022-07-29T05:25:21;26.90;82.10
15554;DHT22;7878;44.632;10.942;2022-07-29T05:27:47;26.90;82.20
15554;DHT22;7878;44.632;10.942;2022-07-29T05:30:13;26.90;82.50
15554;DHT22;7878;44.632;10.942;2022-07-29T05:32:38;26.90;82.40
15554;DHT22;7878;44.632;10.942;2022-07-29T05:35:05;26.90;82.50
15554;DHT22;7878;44.632;10.942;2022-07-29T05:37:30;27.00;82.50
15554;DHT22;7878;44.632;10.942;2022-07-29T05:39:56;27.00;82.40
15554;DHT22;7878;44.632;10.942;2022-07-29T05:42:22;27.00;82.60
15554;DHT22;7878;44.632;10.942;2022-07-29T05:44:48;27.00;82.50
15554;DHT22;7878;44.632;10.942;2022-07-29T05:47:13;27.00;82.40
15554;DHT22;7878;44.632;10.942;2022-07-29T05:49:39;27.10;82.80
15554;DHT22;7878;44.632;10.942;2022-07-29T05:52:05;27.20;82.90
15554;DHT22;7878;44.632;10.942;2022-07-29T05:54:30;27.20;82.80
15554;DHT22;7878;44.632;10.942;2022-07-29T05:56:56;27.20;82.80
15554;DHT22;7878;44.632;10.942;2022-07-29T05:59:22;27.20;82.90
15554;DHT22;7878;44.632;10.942;2022-07-29T06:01:48;27.20;83.30
15554;DHT22;7878;44.632;10.942;2022-07-29T06:04:13;27.20;83.20
15554;DHT22;7878;44.632;10.942;2022-07-29T06:06:39;27.10;83.10
15554;DHT22;7878;44.632;10.942;2022-07-29T06:09:04;27.10;83.10
15554;DHT22;7878;44.632;10.942;2022-07-29T06:11:30;27.10;83.40
15554;DHT22;7878;44.632;10.942;2022-07-29T06:13:56;27.10;83.60
15554;DHT22;7878;44.632;10.942;2022-07-29T06:16:21;27.10;83.50
15554;DHT22;7878;44.632;10.942;2022-07-29T06:18:47;27.20;83.60
15554;DHT22;7878;44.632;10.942;2022-07-29T06:21:13;27.30;83.50
15554;DHT22;7878;44.632;10.942;2022-07-29T06:23:39;27.30;83.70
15554;DHT22;7878;44.632;10.942;2022-07-29T06:26:05;27.30;83.60
15554;DHT22;7878;44.632;10.942;2022-07-29T06:28:32;27.30;83.50
15554;DHT22;7878;44.632;10.942;2022-07-29T06:30:58;27.30;83.60
15554;DHT22;7878;44.632;10.942;2022-07-29T06:33:23;27.40;83.40
15554;DHT22;7878;44.632;10.942;2022-07-29T06:35:49;27.40;83.20
15554;DHT22;7878;44.632;10.942;2022-07-29T06:38:15;27.50;83.10
15554;DHT22;7878;44.632;10.942;2022-07-29T06:40:42;27.50;83.20
15554;DHT22;7878;44.632;10.942;2022-07-29T06:46:06;27.60;83.50
15554;DHT22;7878;44.632;10.942;2022-07-29T06:48:33;27.70;83.40
15554;DHT22;7878;44.632;10.942;2022-07-29T06:50:59;27.70;82.90
15554;DHT22;7878;44.632;10.942;2022-07-29T06:53:26;27.80;83.10
15554;DHT22;7878;44.632;10.942;2022-07-29T06:55:52;27.80;82.90
15554;DHT22;7878;44.632;10.942;2022-07-29T06:58:17;27.80;83.10
15554;DHT22;7878;44.632;10.942;2022-07-29T07:00:46;27.90;83.30
15554;DHT22;7878;44.632;10.942;2022-07-29T07:03:12;27.90;83.30
15554;DHT22;7878;44.632;10.942;2022-07-29T07:05:38;27.80;83.20
15554;DHT22;7878;44.632;10.942;2022-07-29T07:08:04;27.90;83.30
15554;DHT22;7878;44.632;10.942;2022-07-29T07:10:30;27.90;83.10
15554;DHT22;7878;44.632;10.942;2022-07-29T07:12:56;27.90;83.10
15554;DHT22;7878;44.632;10.942;2022-07-29T07:15:21;28.00;83.00
15554;DHT22;7878;44.632;10.942;2022-07-29T07:17:48;28.10;82.80
15554;DHT22;7878;44.632;10.942;2022-07-29T07:20:15;28.20;82.60
15554;DHT22;7878;44.632;10.942;2022-07-29T07:22:41;28.30;82.70
15554;DHT22;7878;44.632;10.942;2022-07-29T07:25:06;28.30;82.30
15554;DHT22;7878;44.632;10.942;2022-07-29T07:27:32;28.30;82.20
15554;DHT22;7878;44.632;10.942;2022-07-29T07:29:58;28.40;82.20
15554;DHT22;7878;44.632;10.942;2022-07-29T07:32:24;28.40;81.90
15554;DHT22;7878;44.632;10.942;2022-07-29T07:34:49;28.50;81.90
15554;DHT22;7878;44.632;10.942;2022-07-29T07:37:15;28.60;81.60
15554;DHT22;7878;44.632;10.942;2022-07-29T07:39:41;28.70;81.40
15554;DHT22;7878;44.632;10.942;2022-07-29T07:42:07;28.80;81.30
15554;DHT22;7878;44.632;10.942;2022-07-29T07:44:33;28.70;81.00
15554;DHT22;7878;44.632;10.942;2022-07-29T07:46:58;28.70;81.10
15554;DHT22;7878;44.632;10.942;2022-07-29T07:49:24;28.80;81.20
15554;DHT22;7878;44.632;10.942;2022-07-29T07:51:49;28.80;81.20
15554;DHT22;7878;44.632;10.942;2022-07-29T07:54:15;28.90;80.60
15554;DHT22;7878;44.632;10.942;2022-07-29T07:56:41;28.90;80.50
15554;DHT22;7878;44.632;10.942;2022-07-29T07:59:06;29.00;80.50
15554;DHT22;7878;44.632;10.942;2022-07-29T08:01:32;29.10;79.90
15554;DHT22;7878;44.632;10.942;2022-07-29T08:03:58;29.10;79.70
15554;DHT22;7878;44.632;10.942;2022-07-29T08:06:23;29.20;79.70
15554;DHT22;7878;44.632;10.942;2022-07-29T08:08:50;29.20;79.80
15554;DHT22;7878;44.632;10.942;2022-07-29T08:11:16;29.20;79.70
15554;DHT22;7878;44.632;10.942;2022-07-29T08:13:42;29.20;79.70
15554;DHT22;7878;44.632;10.942;2022-07-29T08:16:08;29.30;79.50
15554;DHT22;7878;44.632;10.942;2022-07-29T08:18:38;29.40;79.40
15554;DHT22;7878;44.632;10.942;2022-07-29T08:21:05;29.40;79.40
15554;DHT22;7878;44.632;10.942;2022-07-29T08:23:30;29.50;79.30
15554;DHT22;7878;44.632;10.942;2022-07-29T08:26:10;29.60;79.00
15554;DHT22;7878;44.632;10.942;2022-07-29T08:28:40;29.70;78.90
15554;DHT22;7878;44.632;10.942;2022-07-29T08:31:07;30.00;78.20
15554;DHT22;7878;44.632;10.942;2022-07-29T08:33:33;30.30;78.00
15554;DHT22;7878;44.632;10.942;2022-07-29T08:35:59;30.90;77.40
15554;DHT22;7878;44.632;10.942;2022-07-29T08:38:25;31.70;76.50
15554;DHT22;7878;44.632;10.942;2022-07-29T08:40:52;32.00;76.30
15554;DHT22;7878;44.632;10.942;2022-07-29T08:43:18;32.00;76.10
15554;DHT22;7878;44.632;10.942;2022-07-29T08:45:49;31.80;76.50
15554;DHT22;7878;44.632;10.942;2022-07-29T08:48:18;31.70;75.70
15554;DHT22;7878;44.632;10.942;2022-07-29T08:50:44;31.40;76.60
15554;DHT22;7878;44.632;10.942;2022-07-29T08:53:12;31.30;76.90
15554;DHT22;7878;44.632;10.942;2022-07-29T08:55:46;31.20;77.00
15554;DHT22;7878;44.632;10.942;2022-07-29T08:58:13;31.10;76.30
15554;DHT22;7878;44.632;10.942;2022-07-29T09:00:49;31.00;78.00
15554;DHT22;7878;44.632;10.942;2022-07-29T09:03:18;31.00;77.10
15554;DHT22;7878;44.632;10.942;2022-07-29T09:05:47;30.90;77.10
15554;DHT22;7878;44.632;10.942;2022-07-29T09:08:14;30.90;77.10
15554;DHT22;7878;44.632;10.942;2022-07-29T09:10:40;30.90;77.50
15554;DHT22;7878;44.632;10.942;2022-07-29T09:13:06;31.00;77.10
15554;DHT22;7878;44.632;10.942;2022-07-29T09:15:32;30.90;77.10
15554;DHT22;7878;44.632;10.942;2022-07-29T09:17:58;30.90;77.00
15554;DHT22;7878;44.632;10.942;2022-07-29T09:20:25;30.90;77.20
15554;DHT22;7878;44.632;10.942;2022-07-29T09:22:52;31.00;77.20
15554;DHT22;7878;44.632;10.942;2022-07-29T09:25:37;31.00;77.20
15554;DHT22;7878;44.632;10.942;2022-07-29T09:28:10;31.00;74.40
15554;DHT22;7878;44.632;10.942;2022-07-29T09:30:57;31.00;75.70
15554;DHT22;7878;44.632;10.942;2022-07-29T09:33:33;31.00;73.20
15554;DHT22;7878;44.632;10.942;2022-07-29T09:36:07;31.10;75.00
15554;DHT22;7878;44.632;10.942;2022-07-29T09:38:34;31.10;75.40
15554;DHT22;7878;44.632;10.942;2022-07-29T09:41:02;31.30;75.80
15554;DHT22;7878;44.632;10.942;2022-07-29T09:43:27;31.40;75.30
15554;DHT22;7878;44.632;10.942;2022-07-29T09:45:54;31.50;75.70
15554;DHT22;7878;44.632;10.942;2022-07-29T09:48:25;31.60;75.60
15554;DHT22;7878;44.632;10.942;2022-07-29T09:50:51;31.70;75.30
15554;DHT22;7878;44.632;10.942;2022-07-29T09:53:37;31.70;75.40
15554;DHT22;7878;44.632;10.942;2022-07-29T09:56:05;31.60;73.50
15554;DHT22;7878;44.632;10.942;2022-07-29T09:58:31;31.70;75.00
15554;DHT22;7878;44.632;10.942;2022-07-29T10:01:00;31.80;75.00
15554;DHT22;7878;44.632;10.942;2022-07-29T10:03:25;32.20;75.00
15554;DHT22;7878;44.632;10.942;2022-07-29T10:06:11;32.40;74.30
15554;DHT22;7878;44.632;10.942;2022-07-29T10:08:39;32.40;71.90
15554;DHT22;7878;44.632;10.942;2022-07-29T10:11:16;32.60;74.20
15554;DHT22;7878;44.632;10.942;2022-07-29T10:13:45;32.50;73.30
15554;DHT22;7878;44.632;10.942;2022-07-29T10:16:12;32.40;74.50
15554;DHT22;7878;44.632;10.942;2022-07-29T10:18:38;32.40;74.40
15554;DHT22;7878;44.632;10.942;2022-07-29T10:21:04;32.40;74.50
15554;DHT22;7878;44.632;10.942;2022-07-29T10:23:31;32.40;74.90
15554;DHT22;7878;44.632;10.942;2022-07-29T10:25:57;32.40;74.90
15554;DHT22;7878;44.632;10.942;2022-07-29T10:28:23;32.50;74.60
15554;DHT22;7878;44.632;10.942;2022-07-29T10:30:52;32.50;74.40
15554;DHT22;7878;44.632;10.942;2022-07-29T10:36:52;32.50;71.00
15554;DHT22;7878;44.632;10.942;2022-07-29T10:39:33;32.60;71.80
15554;DHT22;7878;44.632;10.942;2022-07-29T10:42:18;32.80;73.80
15554;DHT22;7878;44.632;10.942;2022-07-29T10:44:46;32.80;72.80
15554;DHT22;7878;44.632;10.942;2022-07-29T10:47:26;33.00;73.70
15554;DHT22;7878;44.632;10.942;2022-07-29T10:50:02;33.30;70.00
15554;DHT22;7878;44.632;10.942;2022-07-29T10:55:37;33.30;71.00
15554;DHT22;7878;44.632;10.942;2022-07-29T11:00:39;33.40;72.10
15554;DHT22;7878;44.632;10.942;2022-07-29T11:03:05;33.50;73.30
15554;DHT22;7878;44.632;10.942;2022-07-29T11:05:51;33.80;73.60
15554;DHT22;7878;44.632;10.942;2022-07-29T11:08:20;34.50;69.20
15554;DHT22;7878;44.632;10.942;2022-07-29T11:11:15;35.70;71.50
15554;DHT22;7878;44.632;10.942;2022-07-29T11:13:45;37.70;68.90
15554;DHT22;7878;44.632;10.942;2022-07-29T11:16:16;39.80;65.40
15554;DHT22;7878;44.632;10.942;2022-07-29T11:21:36;42.80;58.80
15554;DHT22;7878;44.632;10.942;2022-07-29T11:24:24;43.70;65.00
15554;DHT22;7878;44.632;10.942;2022-07-29T11:27:18;44.60;58.80
15554;DHT22;7878;44.632;10.942;2022-07-29T11:32:18;45.80;60.60
15554;DHT22;7878;44.632;10.942;2022-07-29T11:34:46;46.00;62.20
15554;DHT22;7878;44.632;10.942;2022-07-29T11:44:56;44.60;62.50
15554;DHT22;7878;44.632;10.942;2022-07-29T11:47:22;43.00;57.80
15554;DHT22;7878;44.632;10.942;2022-07-29T11:49:50;41.60;63.00
15554;DHT22;7878;44.632;10.942;2022-07-29T11:52:17;40.50;64.10
15554;DHT22;7878;44.632;10.942;2022-07-29T11:54:43;39.60;64.40
15554;DHT22;7878;44.632;10.942;2022-07-29T11:57:09;39.10;65.30
15554;DHT22;7878;44.632;10.942;2022-07-29T11:59:40;38.60;64.80
15554;DHT22;7878;44.632;10.942;2022-07-29T12:02:07;38.20;64.50
15554;DHT22;7878;44.632;10.942;2022-07-29T12:04:34;38.00;64.60
15554;DHT22;7878;44.632;10.942;2022-07-29T12:07:13;37.70;65.00
15554;DHT22;7878;44.632;10.942;2022-07-29T12:09:38;37.30;64.30
15554;DHT22;7878;44.632;10.942;2022-07-29T12:12:04;37.00;65.10
15554;DHT22;7878;44.632;10.942;2022-07-29T12:14:32;36.70;64.90
15554;DHT22;7878;44.632;10.942;2022-07-29T12:16:59;36.50;66.00
15554;DHT22;7878;44.632;10.942;2022-07-29T12:19:28;36.40;66.00
15554;DHT22;7878;44.632;10.942;2022-07-29T12:21:55;36.10;65.80
15554;DHT22;7878;44.632;10.942;2022-07-29T12:24:21;35.90;65.60
15554;DHT22;7878;44.632;10.942;2022-07-29T12:26:58;35.80;65.90
15554;DHT22;7878;44.632;10.942;2022-07-29T12:29:24;35.70;64.60
15554;DHT22;7878;44.632;10.942;2022-07-29T12:31:53;35.70;66.50
15554;DHT22;7878;44.632;10.942;2022-07-29T12:34:24;35.60;65.40
15554;DHT22;7878;44.632;10.942;2022-07-29T12:36:52;35.50;65.80
15554;DHT22;7878;44.632;10.942;2022-07-29T12:39:18;35.50;66.30
15554;DHT22;7878;44.632;10.942;2022-07-29T12:41:44;35.60;66.00
15554;DHT22;7878;44.632;10.942;2022-07-29T12:44:11;35.60;65.80
15554;DHT22;7878;44.632;10.942;2022-07-29T12:46:36;35.50;65.60
15554;DHT22;7878;44.632;10.942;2022-07-29T12:49:03;35.50;65.90
15554;DHT22;7878;44.632;10.942;2022-07-29T12:51:37;35.50;65.80
15554;DHT22;7878;44.632;10.942;2022-07-29T12:54:05;35.50;64.50
15554;DHT22;7878;44.632;10.942;2022-07-29T12:56:31;35.40;65.50
15554;DHT22;7878;44.632;10.942;2022-07-29T12:58:57;35.50;65.80
15554;DHT22;7878;44.632;10.942;2022-07-29T13:01:23;35.50;65.20
15554;DHT22;7878;44.632;10.942;2022-07-29T13:03:54;35.40;65.40
15554;DHT22;7878;44.632;10.942;2022-07-29T13:06:34;35.40;65.20
15554;DHT22;7878;44.632;10.942;2022-07-29T13:09:13;35.40;64.50
15554;DHT22;7878;44.632;10.942;2022-07-29T13:11:50;35.30;65.90
15554;DHT22;7878;44.632;10.942;2022-07-29T13:14:42;35.30;65.50
15554;DHT22;7878;44.632;10.942;2022-07-29T13:19:50;35.20;65.60
15554;DHT22;7878;44.632;10.942;2022-07-29T13:22:19;35.10;65.50
15554;DHT22;7878;44.632;10.942;2022-07-29T13:25:05;35.10;65.60
15554;DHT22;7878;44.632;10.942;2022-07-29T13:27:36;35.10;64.90
15554;DHT22;7878;44.632;10.942;2022-07-29T13:30:05;35.10;66.10
15554;DHT22;7878;44.632;10.942;2022-07-29T13:32:32;35.10;66.50
15554;DHT22;7878;44.632;10.942;2022-07-29T13:35:01;35.10;66.20
15554;DHT22;7878;44.632;10.942;2022-07-29T13:37:27;35.10;65.60
15554;DHT22;7878;44.632;10.942;2022-07-29T13:39:55;35.10;65.40
15554;DHT22;7878;44.632;10.942;2022-07-29T13:42:22;35.10;65.80
15554;DHT22;7878;44.632;10.942;2022-07-29T13:44:48;35.20;65.70
15554;DHT22;7878;44.632;10.942;2022-07-29T13:47:16;35.30;65.00
15554;DHT22;7878;44.632;10.942;2022-07-29T13:49:42;35.30;64.90
15554;DHT22;7878;44.632;10.942;2022-07-29T13:52:07;35.30;65.30
15554;DHT22;7878;44.632;10.942;2022-07-29T13:54:33;35.20;64.60
15554;DHT22;7878;44.632;10.942;2022-07-29T13:57:03;35.20;65.30
15554;DHT22;7878;44.632;10.942;2022-07-29T13:59:28;35.20;65.50
15554;DHT22;7878;44.632;10.942;2022-07-29T14:01:54;35.20;65.20
15554;DHT22;7878;44.632;10.942;2022-07-29T14:04:20;35.10;65.30
15554;DHT22;7878;44.632;10.942;2022-07-29T14:06:47;35.10;65.00
15554;DHT22;7878;44.632;10.942;2022-07-29T14:09:12;35.10;64.90
15554;DHT22;7878;44.632;10.942;2022-07-29T14:11:38;35.10;64.70
15554;DHT22;7878;44.632;10.942;2022-07-29T14:14:04;35.10;64.20
15554;DHT22;7878;44.632;10.942;2022-07-29T14:16:30;35.10;65.00
15554;DHT22;7878;44.632;10.942;2022-07-29T14:18:55;35.10;64.80
15554;DHT22;7878;44.632;10.942;2022-07-29T14:21:21;34.90;64.00
15554;DHT22;7878;44.632;10.942;2022-07-29T14:23:47;34.80;65.10
15554;DHT22;7878;44.632;10.942;2022-07-29T14:26:13;34.70;65.00
15554;DHT22;7878;44.632;10.942;2022-07-29T14:28:39;34.70;64.70
15554;DHT22;7878;44.632;10.942;2022-07-29T14:31:04;34.50;65.30
15554;DHT22;7878;44.632;10.942;2022-07-29T14:33:30;34.40;65.10
15554;DHT22;7878;44.632;10.942;2022-07-29T14:35:56;34.40;65.00
15554;DHT22;7878;44.632;10.942;2022-07-29T14:38:21;34.30;65.50
15554;DHT22;7878;44.632;10.942;2022-07-29T14:40:47;34.30;65.60
15554;DHT22;7878;44.632;10.942;2022-07-29T14:43:13;34.20;65.60
15554;DHT22;7878;44.632;10.942;2022-07-29T14:45:40;34.20;66.00
15554;DHT22;7878;44.632;10.942;2022-07-29T14:48:06;34.00;68.10
15554;DHT22;7878;44.632;10.942;2022-07-29T14:50:32;32.40;99.90
15554;DHT22;7878;44.632;10.942;2022-07-29T14:52:58;29.60;99.90
15554;DHT22;7878;44.632;10.942;2022-07-29T14:55:24;28.90;99.90
15554;DHT22;7878;44.632;10.942;2022-07-29T14:57:50;28.50;99.90
15554;DHT22;7878;44.632;10.942;2022-07-29T15:00:16;28.50;99.90
15554;DHT22;7878;44.632;10.942;2022-07-29T15:02:42;28.50;99.90
15554;DHT22;7878;44.632;10.942;2022-07-29T15:05:08;28.40;99.90
15554;DHT22;7878;44.632;10.942;2022-07-29T15:07:34;28.20;99.90
15554;DHT22;7878;44.632;10.942;2022-07-29T15:09:59;28.10;99.90
15554;DHT22;7878;44.632;10.942;2022-07-29T15:12:25;28.10;99.90
15554;DHT22;7878;44.632;10.942;2022-07-29T15:14:51;27.80;99.90
15554;DHT22;7878;44.632;10.942;2022-07-29T15:17:16;27.60;99.90
15554;DHT22;7878;44.632;10.942;2022-07-29T15:19:42;27.50;99.90
15554;DHT22;7878;44.632;10.942;2022-07-29T15:22:08;27.40;99.90
15554;DHT22;7878;44.632;10.942;2022-07-29T15:24:33;27.30;99.90
15554;DHT22;7878;44.632;10.942;2022-07-29T15:26:59;27.30;99.90
15554;DHT22;7878;44.632;10.942;2022-07-29T15:29:25;27.20;99.90
15554;DHT22;7878;44.632;10.942;2022-07-29T15:31:50;27.10;99.90
15554;DHT22;7878;44.632;10.942;2022-07-29T15:34:16;26.90;99.90
15554;DHT22;7878;44.632;10.942;2022-07-29T15:36:42;26.80;99.90
15554;DHT22;7878;44.632;10.942;2022-07-29T15:39:08;26.90;99.90
15554;DHT22;7878;44.632;10.942;2022-07-29T15:41:34;26.80;99.90
15554;DHT22;7878;44.632;10.942;2022-07-29T15:44:00;26.80;99.90
15554;DHT22;7878;44.632;10.942;2022-07-29T15:46:25;26.80;99.90
15554;DHT22;7878;44.632;10.942;2022-07-29T15:49:10;26.70;99.90
15554;DHT22;7878;44.632;10.942;2022-07-29T15:51:36;26.90;99.90
15554;DHT22;7878;44.632;10.942;2022-07-29T15:54:03;26.90;99.90
15554;DHT22;7878;44.632;10.942;2022-07-29T15:56:30;27.10;99.90
15554;DHT22;7878;44.632;10.942;2022-07-29T15:58:56;27.30;99.90
15554;DHT22;7878;44.632;10.942;2022-07-29T16:01:22;27.40;99.90
15554;DHT22;7878;44.632;10.942;2022-07-29T16:03:48;27.30;99.90
15554;DHT22;7878;44.632;10.942;2022-07-29T16:06:14;27.10;99.90
15554;DHT22;7878;44.632;10.942;2022-07-29T16:08:40;27.20;99.90
15554;DHT22;7878;44.632;10.942;2022-07-29T16:11:05;27.30;99.90
15554;DHT22;7878;44.632;10.942;2022-07-29T16:13:31;27.30;99.90
15554;DHT22;7878;44.632;10.942;2022-07-29T16:15:57;27.30;99.90
15554;DHT22;7878;44.632;10.942;2022-07-29T16:18:22;27.40;99.90
15554;DHT22;7878;44.632;10.942;2022-07-29T16:20:48;27.40;99.90